Terminal Aerodrome Forecast
Issued by NWS

Home | Current Version | Previous Version | Text Only | Print | Product List | Glossary On
Versions: 1 2 3 4 5 6 7 8 9 10 11 12 13 14 15 16 17 18 19 20
000
FTUS41 KPBZ 182325
TAFDUJ
TAF
KDUJ 182325Z 1900/1924 18005KT P6SM SCT250
     FM190900 15010KT P6SM SCT015 BKN200 WS020/19040KT
     FM191300 17010KT 5SM -RA BR OVC015 WS020/19040KT
     FM191800 19009KT 3SM -RA BR OVC012 WS020/22035KT
     FM192200 19009KT P6SM VCSH OVC008 WS020/23050KT=

USA.gov is the U.S. government's official web portal to all federal, state and local government web resources and services.